createdAt,value
2022-08-22T00:00:32.674Z,21.20
2022-08-22T00:03:03.231Z,24.00
2022-08-22T00:03:04.652Z,25.40
2022-08-22T00:05:43.151Z,21.20
2022-08-22T00:10:56.716Z,21.20
2022-08-22T00:16:05.864Z,21.20
2022-08-22T00:21:10.641Z,21.10
2022-08-22T00:26:16.730Z,21.10
2022-08-22T00:31:25.672Z,21.00
2022-08-22T00:36:31.320Z,21.00
2022-08-22T00:41:46.389Z,20.90
2022-08-22T00:47:13.392Z,20.90
2022-08-22T00:52:29.842Z,20.90
2022-08-22T00:57:40.563Z,20.80
2022-08-22T01:03:05.935Z,20.80
2022-08-22T01:08:24.855Z,20.80
2022-08-22T01:13:40.616Z,20.80
2022-08-22T01:19:01.328Z,20.70
2022-08-22T01:25:06.877Z,20.70
2022-08-22T01:30:42.731Z,20.70
2022-08-22T01:36:13.221Z,20.60
2022-08-22T01:41:40.930Z,20.60
2022-08-22T01:46:48.622Z,20.60
2022-08-22T01:51:55.206Z,20.60
2022-08-22T01:57:01.748Z,20.50
2022-08-22T02:02:08.246Z,20.50
2022-08-22T02:07:14.207Z,20.50
2022-08-22T02:12:31.298Z,20.50
2022-08-22T02:17:33.260Z,20.50
2022-08-22T02:22:44.417Z,20.50
2022-08-22T02:27:52.219Z,20.50
2022-08-22T02:32:59.384Z,20.50
2022-08-22T02:38:09.036Z,20.40
2022-08-22T02:43:19.657Z,20.50
2022-08-22T02:48:28.115Z,20.50
2022-08-22T02:53:34.712Z,20.40
2022-08-22T02:58:43.866Z,20.50
2022-08-22T03:03:44.503Z,20.40
2022-08-22T03:09:04.490Z,20.40
2022-08-22T03:14:10.408Z,20.50
2022-08-22T03:19:18.924Z,20.50
2022-08-22T03:24:25.860Z,20.50
2022-08-22T03:29:28.252Z,20.40
2022-08-22T03:34:27.494Z,20.40
2022-08-22T03:39:49.792Z,20.40
2022-08-22T03:45:43.118Z,20.50
2022-08-22T03:51:02.171Z,20.40
2022-08-22T03:56:57.426Z,20.40
2022-08-22T04:02:42.061Z,20.40
2022-08-22T04:07:57.010Z,20.40
2022-08-22T04:13:18.250Z,20.30
2022-08-22T04:18:29.364Z,20.30
2022-08-22T04:23:57.929Z,20.30
2022-08-22T04:29:04.827Z,20.30
2022-08-22T04:34:07.407Z,20.20
2022-08-22T04:39:13.932Z,20.20
2022-08-22T04:44:20.299Z,20.20
2022-08-22T04:49:26.031Z,20.10
2022-08-22T04:54:38.685Z,20.10
2022-08-22T04:59:38.621Z,20.10
2022-08-22T05:04:41.611Z,20.00
2022-08-22T05:09:45.940Z,20.00
2022-08-22T05:14:50.102Z,19.90
2022-08-22T05:19:56.556Z,19.90
2022-08-22T05:24:58.657Z,19.90
2022-08-22T05:30:03.312Z,19.90
2022-08-22T05:35:04.373Z,19.90
2022-08-22T05:40:03.117Z,19.90
2022-08-22T05:45:06.841Z,20.00
2022-08-22T05:50:17.251Z,20.00
2022-08-22T05:55:26.282Z,20.10
2022-08-22T06:00:28.239Z,20.10
2022-08-22T06:05:28.741Z,20.20
2022-08-22T06:10:32.203Z,20.30
2022-08-22T06:15:41.860Z,20.40
2022-08-22T06:20:49.042Z,20.50
2022-08-22T06:25:50.441Z,20.70
2022-08-22T06:30:52.075Z,20.80
2022-08-22T06:36:11.161Z,20.90
2022-08-22T06:41:10.753Z,21.10
2022-08-22T06:46:11.838Z,21.30
2022-08-22T06:51:12.421Z,21.60
2022-08-22T06:56:11.420Z,21.80
2022-08-22T07:01:14.056Z,22.00
2022-08-22T07:06:19.235Z,22.30
2022-08-22T07:11:24.676Z,22.60
2022-08-22T07:16:34.796Z,22.90
2022-08-22T07:21:43.961Z,22.90
2022-08-22T07:26:55.526Z,23.30
2022-08-22T07:32:06.592Z,23.50
2022-08-22T07:37:09.369Z,23.80
2022-08-22T07:42:14.257Z,24.00
2022-08-22T07:47:26.353Z,24.20
2022-08-22T07:52:26.028Z,24.40
2022-08-22T07:57:29.559Z,24.70
2022-08-22T08:02:29.934Z,25.00
2022-08-22T08:07:32.149Z,25.20
2022-08-22T08:12:34.373Z,25.30
2022-08-22T08:17:36.386Z,25.30
2022-08-22T08:22:35.444Z,25.50
2022-08-22T08:27:56.602Z,25.50
2022-08-22T08:33:25.033Z,25.70
2022-08-22T08:38:21.622Z,25.70
2022-08-22T08:43:29.986Z,25.90
2022-08-22T08:48:51.686Z,26.00
2022-08-22T08:54:09.349Z,26.20
2022-08-22T08:59:21.953Z,26.50
2022-08-22T09:04:46.852Z,26.70
2022-08-22T09:10:04.719Z,27.00
2022-08-22T09:15:24.438Z,27.10
2022-08-22T09:21:02.415Z,27.30
2022-08-22T09:26:04.968Z,27.60
2022-08-22T09:31:51.510Z,27.70
2022-08-22T09:37:14.165Z,27.60
2022-08-22T09:42:19.705Z,27.70
2022-08-22T09:47:25.284Z,27.70
2022-08-22T09:52:51.803Z,28.00
2022-08-22T09:57:56.155Z,28.50
2022-08-22T10:03:03.953Z,28.80
2022-08-22T10:08:13.074Z,28.80
2022-08-22T10:13:22.887Z,28.80
2022-08-22T10:18:33.834Z,28.90
2022-08-22T10:23:38.499Z,28.90
2022-08-22T10:28:50.682Z,28.90
2022-08-22T10:34:00.651Z,29.10
2022-08-22T10:39:09.345Z,29.20
2022-08-22T10:44:18.444Z,29.30
2022-08-22T10:49:28.164Z,29.60
2022-08-22T10:54:46.053Z,29.80
2022-08-22T10:59:48.074Z,30.10
2022-08-22T11:05:13.913Z,30.40
2022-08-22T11:10:23.786Z,30.60
2022-08-22T11:15:42.350Z,30.80
2022-08-22T11:20:51.732Z,31.10
2022-08-22T11:26:05.040Z,31.20
2022-08-22T11:31:10.080Z,31.40
2022-08-22T11:36:29.196Z,31.60
2022-08-22T11:41:38.207Z,31.80
2022-08-22T11:46:40.475Z,31.90
2022-08-22T11:51:58.207Z,32.10
2022-08-22T11:57:09.478Z,32.40
2022-08-22T12:02:16.110Z,32.60
2022-08-22T12:07:22.303Z,32.80
2022-08-22T12:12:36.230Z,32.90
2022-08-22T12:18:25.463Z,32.80
2022-08-22T12:23:49.185Z,32.90
2022-08-22T12:29:04.598Z,33.00
2022-08-22T12:34:22.246Z,32.90
2022-08-22T12:39:55.831Z,32.80
2022-08-22T12:45:22.427Z,32.90
2022-08-22T12:50:31.537Z,32.90
2022-08-22T12:56:03.583Z,32.80
2022-08-22T13:01:07.346Z,32.80
2022-08-22T13:06:53.254Z,32.90
2022-08-22T13:11:55.349Z,33.00
2022-08-22T13:17:01.529Z,33.10
2022-08-22T13:22:26.184Z,33.20
2022-08-22T13:27:31.287Z,33.10
2022-08-22T13:32:35.067Z,33.00
2022-08-22T13:37:38.857Z,32.90
2022-08-22T13:42:45.498Z,32.80
2022-08-22T13:47:56.401Z,32.60
2022-08-22T13:53:03.547Z,32.80
2022-08-22T13:58:07.619Z,32.70
2022-08-22T14:03:17.119Z,32.60
2022-08-22T14:08:20.624Z,32.50
2022-08-22T14:13:39.271Z,32.10
2022-08-22T14:18:46.159Z,31.90
2022-08-22T14:23:45.991Z,31.70
2022-08-22T14:28:45.028Z,31.70
2022-08-22T14:33:49.854Z,31.70
2022-08-22T14:38:56.381Z,31.60
2022-08-22T14:43:58.649Z,31.40
2022-08-22T14:49:31.674Z,31.00
2022-08-22T14:54:31.985Z,30.90
2022-08-22T14:59:40.562Z,30.90
2022-08-22T15:04:43.432Z,30.90
2022-08-22T15:09:50.109Z,30.90
2022-08-22T15:14:52.551Z,30.90
2022-08-22T15:19:52.304Z,31.00
2022-08-22T15:24:58.230Z,30.90
2022-08-22T15:29:59.708Z,30.80
2022-08-22T15:35:09.415Z,30.70
2022-08-22T15:40:12.641Z,30.70
2022-08-22T15:45:21.564Z,30.70
2022-08-22T15:50:33.978Z,30.70
2022-08-22T15:55:34.495Z,30.60
2022-08-22T16:00:43.246Z,30.60
2022-08-22T16:05:51.980Z,30.50
2022-08-22T16:11:13.871Z,30.50
2022-08-22T16:16:35.251Z,30.30
2022-08-22T16:22:19.426Z,30.10
2022-08-22T16:27:25.548Z,30.00
2022-08-22T16:32:28.774Z,29.80
2022-08-22T16:37:50.353Z,29.80
2022-08-22T16:42:53.966Z,29.70
2022-08-22T16:47:58.487Z,29.70
2022-08-22T16:53:01.583Z,29.70
2022-08-22T16:58:09.080Z,29.60
2022-08-22T17:03:18.137Z,29.50
2022-08-22T17:08:38.821Z,29.40
2022-08-22T17:13:52.627Z,29.30
2022-08-22T17:19:17.500Z,29.10
2022-08-22T17:24:31.938Z,29.00
2022-08-22T17:29:48.990Z,28.70
2022-08-22T17:34:57.096Z,28.60
2022-08-22T17:40:14.338Z,28.60
2022-08-22T17:45:25.824Z,28.50
2022-08-22T17:50:33.422Z,28.50
2022-08-22T17:55:40.288Z,28.30
2022-08-22T18:00:48.738Z,28.30
2022-08-22T18:05:52.280Z,28.20
2022-08-22T18:10:54.778Z,28.10
2022-08-22T18:15:58.232Z,28.10
2022-08-22T18:21:01.878Z,27.90
2022-08-22T18:26:09.092Z,27.70
2022-08-22T18:31:18.266Z,27.50
2022-08-22T18:36:26.580Z,27.40
2022-08-22T18:41:33.655Z,27.40
2022-08-22T18:46:47.041Z,27.30
2022-08-22T18:51:45.483Z,27.20
2022-08-22T18:57:06.940Z,27.00
2022-08-22T19:02:42.572Z,26.90
2022-08-22T19:08:09.521Z,26.80
2022-08-22T19:13:32.729Z,26.60
2022-08-22T19:18:42.218Z,26.60
2022-08-22T19:23:49.231Z,26.40
2022-08-22T19:28:48.085Z,26.30
2022-08-22T19:33:50.168Z,26.20
2022-08-22T19:38:59.917Z,26.20
2022-08-22T19:43:58.828Z,26.20
2022-08-22T19:48:59.072Z,26.00
2022-08-22T19:54:18.290Z,26.00
2022-08-22T19:59:24.443Z,26.00
2022-08-22T20:04:52.810Z,25.90
2022-08-22T20:10:02.811Z,25.80
2022-08-22T20:15:17.451Z,25.70
2022-08-22T20:20:58.297Z,25.60
2022-08-22T20:25:57.528Z,25.50
2022-08-22T20:31:01.461Z,25.50
2022-08-22T20:36:05.282Z,25.40
2022-08-22T20:41:15.223Z,25.30
2022-08-22T20:46:38.472Z,25.30
2022-08-22T20:51:51.839Z,25.20
2022-08-22T20:56:53.980Z,25.20
2022-08-22T21:01:58.706Z,25.20
2022-08-22T21:07:02.689Z,25.00
2022-08-22T21:12:03.166Z,25.00
2022-08-22T21:17:20.399Z,24.90
2022-08-22T21:22:30.301Z,24.90
2022-08-22T21:27:31.607Z,24.80
2022-08-22T21:32:35.086Z,24.60
2022-08-22T21:37:39.880Z,24.60
2022-08-22T21:42:40.418Z,24.50
2022-08-22T21:47:41.116Z,24.50
2022-08-22T21:52:44.081Z,24.50
2022-08-22T21:57:42.301Z,24.50
2022-08-22T22:02:41.902Z,24.40
2022-08-22T22:07:47.644Z,24.40
2022-08-22T22:12:48.327Z,24.30
2022-08-22T22:17:46.622Z,24.30
2022-08-22T22:22:47.092Z,24.20
2022-08-22T22:27:46.789Z,24.00
2022-08-22T22:32:46.468Z,23.90
2022-08-22T22:37:47.361Z,23.80
2022-08-22T22:42:45.557Z,23.80
2022-08-22T22:47:43.747Z,23.70
2022-08-22T22:52:41.942Z,23.60
2022-08-22T22:57:42.815Z,23.60
2022-08-22T23:02:41.658Z,23.50
2022-08-22T23:07:40.118Z,23.50
2022-08-22T23:12:39.279Z,23.50
2022-08-22T23:17:38.835Z,23.40
2022-08-22T23:22:37.150Z,23.30
2022-08-22T23:27:35.343Z,23.30
2022-08-22T23:32:34.503Z,23.20
2022-08-22T23:37:34.113Z,23.20
2022-08-22T23:42:32.362Z,23.10
2022-08-22T23:47:30.620Z,23.00
2022-08-22T23:52:28.801Z,22.90
2022-08-22T23:57:29.454Z,22.70
